Time;durP1;ratioP1;P1;durP2;ratioP2;P2;SDS_P1;SDS_P2;PMS_P1;PMS_P2;Temp;Humidity;BMP_temperature;BMP_pressure;BME280_temperature;BME280_humidity;BME280_pressure;Samples;Min_cycle;Max_cycle;Signal;HPM_P1;HPM_P2
2024/04/11 00:00:04;;;;;;;12.23;4.70;;;;;;;;;;5563381;25;20319;-81
2024/04/11 00:02:34;;;;;;;8.90;5.07;;;;;;;;;;5563000;25;20228;-81
2024/04/11 00:05:00;;;;;;;9.77;4.40;;;;;;;;;;5562757;25;20225;-81
2024/04/11 00:07:29;;;;;;;9.67;4.60;;;;;;;;;;5563504;25;20329;-81
2024/04/11 00:09:55;;;;;;;7.30;4.47;;;;;;;;;;5563175;25;20271;-80
2024/04/11 00:12:27;;;;;;;8.90;4.67;;;;;;;;;;5562727;25;20263;-80
2024/04/11 00:14:53;;;;;;;10.13;4.13;;;;;;;;;;5562879;25;20226;-82
2024/04/11 00:17:22;;;;;;;10.70;4.40;;;;;;;;;;5562845;25;20229;-80
2024/04/11 00:19:49;;;;;;;8.87;4.80;;;;;;;;;;5562554;25;20320;-81
2024/04/11 00:22:17;;;;;;;11.83;5.30;;;;;;;;;;5561016;25;20236;-81
2024/04/11 00:24:46;;;;;;;11.10;5.40;;;;;;;;;;5563261;25;20221;-81
2024/04/11 00:27:15;;;;;;;12.67;5.97;;;;;;;;;;5562553;25;20237;-81
2024/04/11 00:29:44;;;;;;;12.57;6.23;;;;;;;;;;5562404;25;20237;-82
2024/04/11 00:32:13;;;;;;;13.47;5.43;;;;;;;;;;5562963;25;20267;-81
2024/04/11 00:34:43;;;;;;;11.57;5.37;;;;;;;;;;5562261;25;20714;-81
2024/04/11 00:37:15;;;;;;;10.77;4.43;;;;;;;;;;5562304;25;20275;-81
2024/04/11 00:39:41;;;;;;;10.90;4.90;;;;;;;;;;5563179;25;20286;-82
2024/04/11 00:42:10;;;;;;;11.70;5.07;;;;;;;;;;5562092;25;20299;-80
2024/04/11 00:44:39;;;;;;;7.97;4.83;;;;;;;;;;5562249;25;20221;-81
2024/04/11 00:47:11;;;;;;;11.50;4.83;;;;;;;;;;5562691;25;20229;-81
2024/04/11 00:49:39;;;;;;;9.77;5.30;;;;;;;;;;5562064;25;20216;-81
2024/04/11 00:52:08;;;;;;;10.63;4.90;;;;;;;;;;5562400;25;20281;-81
2024/04/11 00:54:35;;;;;;;14.63;4.87;;;;;;;;;;5562677;25;20221;-81
2024/04/11 00:57:07;;;;;;;10.77;5.13;;;;;;;;;;5562327;25;20297;-80
2024/04/11 00:59:35;;;;;;;10.80;5.33;;;;;;;;;;5562094;25;20221;-80
2024/04/11 01:02:04;;;;;;;10.03;5.13;;;;;;;;;;5561997;25;20228;-80
2024/04/11 01:04:33;;;;;;;8.80;4.83;;;;;;;;;;5561870;25;20263;-80
2024/04/11 01:07:09;;;;;;;11.90;5.50;;;;;;;;;;5562455;25;20225;-81
2024/04/11 01:09:35;;;;;;;11.63;4.97;;;;;;;;;;5561803;25;20221;-80
2024/04/11 01:12:05;;;;;;;10.63;4.83;;;;;;;;;;5562135;25;20229;-80
2024/04/11 01:14:31;;;;;;;12.00;5.00;;;;;;;;;;5561817;25;20570;-81
2024/04/11 01:17:00;;;;;;;15.73;5.57;;;;;;;;;;5561900;25;20878;-80
2024/04/11 01:19:26;;;;;;;10.60;5.13;;;;;;;;;;5561900;25;20225;-81
2024/04/11 01:22:00;;;;;;;11.63;4.70;;;;;;;;;;5562255;25;20237;-81
2024/04/11 01:24:28;;;;;;;10.30;4.80;;;;;;;;;;5562116;25;20260;-81
2024/04/11 01:26:59;;;;;;;11.73;5.03;;;;;;;;;;5562039;25;20229;-81
2024/04/11 01:29:26;;;;;;;11.63;5.43;;;;;;;;;;5561853;25;20225;-81
2024/04/11 01:31:57;;;;;;;14.50;5.53;;;;;;;;;;5561689;25;20230;-79
2024/04/11 01:34:23;;;;;;;12.30;5.40;;;;;;;;;;5561106;25;20341;-80
2024/04/11 01:36:54;;;;;;;11.73;5.50;;;;;;;;;;5561471;25;20741;-81
2024/04/11 01:39:20;;;;;;;13.13;5.60;;;;;;;;;;5561532;25;20216;-82
2024/04/11 01:41:53;;;;;;;13.07;6.37;;;;;;;;;;5561778;25;20321;-81
2024/04/11 01:44:19;;;;;;;12.00;5.60;;;;;;;;;;5561755;25;20256;-80
2024/04/11 01:46:48;;;;;;;16.43;5.00;;;;;;;;;;5560871;25;20267;-81
2024/04/11 01:49:15;;;;;;;17.50;4.90;;;;;;;;;;5561524;25;20217;-81
2024/04/11 01:51:44;;;;;;;13.47;5.10;;;;;;;;;;5561445;25;20292;-81
2024/04/11 01:54:11;;;;;;;11.70;4.67;;;;;;;;;;5561466;25;20264;-80
2024/04/11 01:56:40;;;;;;;13.73;5.00;;;;;;;;;;5560276;25;20272;-81
2024/04/11 01:59:09;;;;;;;13.60;4.83;;;;;;;;;;5561246;25;20225;-81
2024/04/11 02:01:40;;;;;;;17.17;5.50;;;;;;;;;;5560672;25;20272;-80
2024/04/11 02:04:06;;;;;;;13.90;5.03;;;;;;;;;;5545675;25;20237;-80
2024/04/11 02:06:36;;;;;;;13.63;5.10;;;;;;;;;;5524183;26;20226;-81
2024/04/11 02:09:05;;;;;;;14.63;5.10;;;;;;;;;;5523570;26;20261;-80
2024/04/11 02:11:35;;;;;;;15.67;5.57;;;;;;;;;;5524010;26;20234;-80
2024/04/11 02:14:01;;;;;;;15.87;5.47;;;;;;;;;;5542330;25;21069;-81
2024/04/11 02:16:36;;;;;;;14.40;4.93;;;;;;;;;;5560253;25;20332;-80
2024/04/11 02:19:06;;;;;;;13.47;4.97;;;;;;;;;;5561297;25;20216;-81
2024/04/11 02:21:35;;;;;;;14.57;5.10;;;;;;;;;;5560804;25;20297;-81
2024/04/11 02:24:01;;;;;;;13.33;5.03;;;;;;;;;;5560982;25;20228;-81
2024/04/11 02:26:30;;;;;;;18.07;5.00;;;;;;;;;;5561060;25;20268;-81
2024/04/11 02:28:56;;;;;;;15.43;5.30;;;;;;;;;;5560563;25;20217;-81
2024/04/11 02:31:25;;;;;;;15.53;4.80;;;;;;;;;;5560674;25;20237;-81
2024/04/11 02:33:54;;;;;;;15.43;5.40;;;;;;;;;;5560739;25;20263;-81
2024/04/11 02:36:23;;;;;;;14.90;4.80;;;;;;;;;;5560878;25;20304;-80
2024/04/11 02:38:49;;;;;;;15.27;5.53;;;;;;;;;;5560418;25;20217;-80
2024/04/11 02:41:18;;;;;;;14.60;5.37;;;;;;;;;;5560706;25;20232;-81
2024/04/11 02:43:45;;;;;;;14.27;5.30;;;;;;;;;;5559918;25;20272;-81
2024/04/11 02:46:17;;;;;;;15.13;5.60;;;;;;;;;;5563760;25;20233;-80
2024/04/11 02:48:44;;;;;;;15.43;5.17;;;;;;;;;;5564320;25;20269;-81
2024/04/11 02:51:17;;;;;;;14.80;5.60;;;;;;;;;;5563879;25;20271;-79
2024/04/11 02:53:44;;;;;;;16.53;5.43;;;;;;;;;;5564271;25;20260;-81
2024/04/11 02:56:13;;;;;;;13.57;5.33;;;;;;;;;;5564226;25;20229;-81
2024/04/11 02:58:40;;;;;;;19.23;5.23;;;;;;;;;;5563754;25;20221;-80
2024/04/11 03:01:10;;;;;;;14.80;5.03;;;;;;;;;;5564295;25;20217;-81
2024/04/11 03:03:37;;;;;;;18.13;5.23;;;;;;;;;;5564047;25;20221;-81
2024/04/11 03:06:08;;;;;;;14.50;4.93;;;;;;;;;;5563023;25;20229;-81
2024/04/11 03:08:36;;;;;;;15.87;4.83;;;;;;;;;;5563615;25;20272;-80
2024/04/11 03:11:06;;;;;;;12.60;5.07;;;;;;;;;;5564017;25;20562;-80
2024/04/11 03:13:33;;;;;;;12.67;5.33;;;;;;;;;;5552120;25;20329;-80
2024/04/11 03:16:03;;;;;;;22.10;5.73;;;;;;;;;;5526537;26;20646;-81
2024/04/11 03:18:29;;;;;;;19.43;5.97;;;;;;;;;;5526091;25;20226;-80
2024/04/11 03:20:58;;;;;;;18.50;5.90;;;;;;;;;;5526085;26;20226;-80
2024/04/11 03:23:25;;;;;;;19.80;5.97;;;;;;;;;;5526309;26;20269;-81
2024/04/11 03:25:56;;;;;;;18.57;5.90;;;;;;;;;;5525966;26;20230;-80
2024/04/11 03:28:23;;;;;;;13.63;5.43;;;;;;;;;;5526029;26;20265;-81
2024/04/11 03:31:00;;;;;;;21.17;6.37;;;;;;;;;;5526592;26;20230;-80
2024/04/11 03:33:27;;;;;;;18.13;6.07;;;;;;;;;;5526092;26;20269;-81
2024/04/11 03:35:56;;;;;;;19.17;5.93;;;;;;;;;;5526365;26;20333;-80
2024/04/11 03:38:24;;;;;;;21.07;6.07;;;;;;;;;;5526570;26;20233;-82
2024/04/11 03:41:04;;;;;;;16.77;5.97;;;;;;;;;;5525291;26;20334;-80
2024/04/11 03:43:33;;;;;;;16.90;5.33;;;;;;;;;;5525792;26;21017;-81
2024/04/11 03:46:08;;;;;;;16.00;5.43;;;;;;;;;;5526528;25;20222;-82
2024/04/11 03:48:37;;;;;;;16.20;5.30;;;;;;;;;;5526235;26;20226;-80
2024/04/11 03:51:13;;;;;;;14.53;4.83;;;;;;;;;;5525697;25;20269;-81
2024/04/11 03:53:43;;;;;;;14.37;5.67;;;;;;;;;;5525659;26;20310;-82
2024/04/11 03:56:14;;;;;;;16.63;5.87;;;;;;;;;;5524951;26;20222;-81
2024/04/11 03:58:43;;;;;;;13.90;5.00;;;;;;;;;;5526030;26;20229;-81
2024/04/11 04:01:12;;;;;;;20.17;5.63;;;;;;;;;;5525618;25;20222;-80
2024/04/11 04:03:41;;;;;;;13.07;4.67;;;;;;;;;;5525843;25;20764;-81
2024/04/11 04:06:08;;;;;;;15.63;5.60;;;;;;;;;;5525835;26;20230;-81
2024/04/11 04:08:38;;;;;;;13.37;5.00;;;;;;;;;;5525795;26;20272;-81
2024/04/11 04:11:05;;;;;;;19.97;6.40;;;;;;;;;;5525317;26;20563;-80
2024/04/11 04:13:38;;;;;;;13.40;5.17;;;;;;;;;;5525394;25;20238;-81
2024/04/11 04:16:08;;;;;;;16.50;5.03;;;;;;;;;;5525755;26;20329;-80
2024/04/11 04:18:39;;;;;;;15.20;5.23;;;;;;;;;;5525131;26;20623;-81
2024/04/11 04:21:07;;;;;;;12.40;5.10;;;;;;;;;;5525362;26;20260;-83
2024/04/11 04:23:36;;;;;;;15.23;4.90;;;;;;;;;;5525879;26;20265;-83
2024/04/11 04:26:04;;;;;;;17.00;5.73;;;;;;;;;;5525113;26;20222;-82
2024/04/11 04:28:34;;;;;;;17.00;5.00;;;;;;;;;;5525811;26;20230;-82
2024/04/11 04:31:14;;;;;;;17.40;4.20;;;;;;;;;;5524686;26;20269;-83
2024/04/11 04:33:47;;;;;;;13.93;4.27;;;;;;;;;;5525370;26;20230;-82
2024/04/11 04:36:16;;;;;;;17.90;4.67;;;;;;;;;;5525394;26;20230;-81
2024/04/11 04:38:46;;;;;;;20.00;4.50;;;;;;;;;;5525253;26;20246;-81
2024/04/11 04:41:12;;;;;;;17.93;4.80;;;;;;;;;;5524409;26;20262;-82
2024/04/11 04:43:41;;;;;;;13.73;4.23;;;;;;;;;;5525558;26;20273;-82
2024/04/11 04:46:08;;;;;;;14.90;4.50;;;;;;;;;;5524910;26;20253;-81
2024/04/11 04:48:40;;;;;;;13.17;4.37;;;;;;;;;;5525176;26;20333;-82
2024/04/11 04:51:06;;;;;;;13.10;4.10;;;;;;;;;;5525100;26;20218;-81
2024/04/11 04:53:36;;;;;;;16.40;4.83;;;;;;;;;;5525319;26;20222;-82
2024/04/11 04:56:03;;;;;;;13.30;3.87;;;;;;;;;;5524394;26;20248;-82
2024/04/11 04:58:32;;;;;;;14.17;3.83;;;;;;;;;;5525444;26;20281;-81
2024/04/11 05:01:00;;;;;;;13.73;3.97;;;;;;;;;;5525021;25;20620;-81
2024/04/11 05:03:31;;;;;;;14.43;4.60;;;;;;;;;;5524471;26;20265;-81
2024/04/11 05:06:02;;;;;;;14.57;4.30;;;;;;;;;;5524732;26;20222;-82
2024/04/11 05:08:32;;;;;;;12.27;4.10;;;;;;;;;;5523768;26;20328;-81
2024/04/11 05:10:58;;;;;;;15.83;5.07;;;;;;;;;;5524800;26;20269;-82
2024/04/11 05:13:29;;;;;;;13.97;4.17;;;;;;;;;;5524299;25;20226;-81
2024/04/11 05:15:56;;;;;;;10.50;3.50;;;;;;;;;;5524808;25;20277;-81
2024/04/11 05:18:26;;;;;;;16.77;4.23;;;;;;;;;;5524369;26;20237;-82
2024/04/11 05:20:52;;;;;;;14.17;3.90;;;;;;;;;;5522487;26;20222;-81
2024/04/11 05:23:32;;;;;;;11.43;3.43;;;;;;;;;;5524120;26;20230;-82
2024/04/11 05:25:58;;;;;;;15.87;3.93;;;;;;;;;;5524668;26;20222;-82
2024/04/11 05:28:34;;;;;;;15.50;3.90;;;;;;;;;;5524120;26;20225;-83
2024/04/11 05:31:04;;;;;;;15.30;3.97;;;;;;;;;;5524119;26;20233;-82
2024/04/11 05:33:34;;;;;;;16.43;3.97;;;;;;;;;;5524399;26;20277;-81
2024/04/11 05:36:00;;;;;;;16.40;3.93;;;;;;;;;;5524248;26;20233;-80
2024/04/11 05:38:32;;;;;;;17.43;4.20;;;;;;;;;;5524407;26;20313;-81
2024/04/11 05:40:58;;;;;;;17.70;4.33;;;;;;;;;;5524322;26;20222;-82
2024/04/11 05:43:27;;;;;;;13.17;4.40;;;;;;;;;;5534572;25;20259;-82
2024/04/11 05:45:57;;;;;;;15.10;4.20;;;;;;;;;;5551377;25;20866;-82
2024/04/11 05:48:27;;;;;;;17.37;4.70;;;;;;;;;;5560665;25;20556;-81
2024/04/11 05:50:54;;;;;;;20.43;5.10;;;;;;;;;;5561802;25;20245;-80
2024/04/11 05:53:23;;;;;;;15.87;4.90;;;;;;;;;;5560877;25;20237;-81
2024/04/11 05:55:52;;;;;;;12.57;4.37;;;;;;;;;;5561486;25;20209;-81
2024/04/11 05:58:21;;;;;;;15.60;4.70;;;;;;;;;;5561818;25;20260;-82
2024/04/11 06:00:49;;;;;;;19.83;4.07;;;;;;;;;;5561422;25;20268;-84
2024/04/11 06:03:18;;;;;;;20.67;4.50;;;;;;;;;;5562221;25;20743;-84
2024/04/11 06:05:46;;;;;;;23.50;4.60;;;;;;;;;;5562296;25;20221;-85
2024/04/11 06:08:16;;;;;;;16.97;4.40;;;;;;;;;;5561308;25;20229;-84
2024/04/11 06:10:42;;;;;;;17.83;4.20;;;;;;;;;;5561303;25;20247;-84
2024/04/11 06:13:14;;;;;;;21.57;4.97;;;;;;;;;;5560177;25;20280;-83
2024/04/11 06:15:42;;;;;;;20.70;5.60;;;;;;;;;;5559643;25;20225;-83
2024/04/11 06:18:14;;;;;;;18.73;4.57;;;;;;;;;;5562078;25;20236;-84
2024/04/11 06:20:41;;;;;;;23.47;4.30;;;;;;;;;;5564884;25;20217;-84
2024/04/11 06:23:15;;;;;;;18.27;4.03;;;;;;;;;;5564593;25;20237;-84
2024/04/11 06:25:42;;;;;;;18.47;3.97;;;;;;;;;;5565063;25;20220;-83
2024/04/11 06:28:14;;;;;;;24.33;4.37;;;;;;;;;;5564076;25;20270;-83
2024/04/11 06:30:41;;;;;;;21.00;3.93;;;;;;;;;;5564634;25;20217;-83
2024/04/11 06:33:13;;;;;;;16.77;4.10;;;;;;;;;;5565372;25;20280;-83
2024/04/11 06:35:40;;;;;;;20.63;4.10;;;;;;;;;;5564521;25;20221;-84
2024/04/11 06:38:09;;;;;;;20.63;4.27;;;;;;;;;;5564321;25;20260;-84
2024/04/11 06:40:35;;;;;;;20.73;4.37;;;;;;;;;;5564631;25;20252;-84
2024/04/11 06:43:08;;;;;;;18.53;4.57;;;;;;;;;;5565090;25;20220;-82
2024/04/11 06:45:38;;;;;;;16.93;4.13;;;;;;;;;;5564611;25;20221;-84
2024/04/11 06:48:08;;;;;;;18.07;4.10;;;;;;;;;;5565135;25;20263;-84
2024/04/11 06:50:34;;;;;;;15.27;4.30;;;;;;;;;;5564242;25;20349;-84
2024/04/11 06:53:04;;;;;;;20.87;4.90;;;;;;;;;;5564417;25;20587;-84
2024/04/11 06:55:31;;;;;;;17.20;4.60;;;;;;;;;;5562737;25;20315;-83
2024/04/11 06:58:01;;;;;;;18.20;4.53;;;;;;;;;;5564637;25;20764;-85
2024/04/11 07:00:35;;;;;;;16.93;4.40;;;;;;;;;;5564373;25;20225;-84
2024/04/11 07:03:13;;;;;;;17.43;5.43;;;;;;;;;;5564751;25;20259;-84
2024/04/11 07:05:48;;;;;;;13.20;5.00;;;;;;;;;;5564792;25;20255;-84
2024/04/11 07:08:19;;;;;;;20.53;5.40;;;;;;;;;;5564127;25;20564;-83
2024/04/11 07:10:46;;;;;;;16.30;5.13;;;;;;;;;;5564140;25;20598;-84
2024/04/11 07:13:15;;;;;;;14.97;4.57;;;;;;;;;;5563943;25;20340;-85
2024/04/11 07:15:42;;;;;;;17.40;4.57;;;;;;;;;;5564309;25;20225;-84
2024/04/11 07:18:15;;;;;;;18.45;4.88;;;;;;;;;;5564146;25;20271;-84
2024/04/11 07:20:48;;;;;;;12.82;4.28;;;;;;;;;;5563830;25;20289;-83
2024/04/11 07:23:17;;;;;;;13.45;4.82;;;;;;;;;;5563829;25;20228;-84
2024/04/11 07:25:44;;;;;;;16.92;5.10;;;;;;;;;;5564541;25;20221;-85
2024/04/11 07:28:15;;;;;;;11.88;4.32;;;;;;;;;;5564615;25;20332;-85
2024/04/11 07:30:41;;;;;;;17.98;5.03;;;;;;;;;;5563841;25;20268;-85
2024/04/11 07:33:12;;;;;;;13.68;4.20;;;;;;;;;;5564891;25;20592;-85
2024/04/11 07:35:43;;;;;;;18.95;4.97;;;;;;;;;;5564028;25;20342;-85
2024/04/11 07:38:13;;;;;;;12.13;4.22;;;;;;;;;;5564874;25;20280;-85
2024/04/11 07:40:45;;;;;;;13.27;4.00;;;;;;;;;;5563946;25;20338;-86
2024/04/11 07:43:15;;;;;;;13.38;3.47;;;;;;;;;;5564170;25;20629;-85
2024/04/11 07:45:41;;;;;;;13.23;3.47;;;;;;;;;;5564383;25;20221;-85
2024/04/11 07:48:12;;;;;;;15.80;4.28;;;;;;;;;;5564361;25;20290;-85
2024/04/11 07:50:38;;;;;;;19.27;4.55;;;;;;;;;;5564171;25;20268;-85
2024/04/11 07:53:14;;;;;;;13.43;3.90;;;;;;;;;;5564058;25;20229;-83
2024/04/11 07:55:40;;;;;;;14.80;4.30;;;;;;;;;;5563979;25;20217;-83
2024/04/11 07:58:09;;;;;;;13.27;3.53;;;;;;;;;;5563227;25;20263;-83
2024/04/11 08:00:39;;;;;;;13.27;3.63;;;;;;;;;;5563073;25;20279;-82
2024/04/11 08:03:08;;;;;;;13.82;3.20;;;;;;;;;;5562956;25;20241;-82
2024/04/11 08:05:34;;;;;;;10.98;3.30;;;;;;;;;;5564007;25;20220;-83
2024/04/11 08:08:04;;;;;;;12.27;3.25;;;;;;;;;;5563338;25;20217;-83
2024/04/11 08:10:35;;;;;;;14.35;3.67;;;;;;;;;;5562790;25;20346;-83
2024/04/11 08:13:04;;;;;;;9.60;3.05;;;;;;;;;;5562935;25;20260;-84
2024/04/11 08:15:30;;;;;;;13.70;3.40;;;;;;;;;;5563094;25;20221;-83
2024/04/11 08:17:59;;;;;;;10.20;3.13;;;;;;;;;;5562681;25;20221;-84
2024/04/11 08:20:26;;;;;;;13.75;2.92;;;;;;;;;;5563155;25;20222;-83
2024/04/11 08:22:55;;;;;;;15.93;3.05;;;;;;;;;;5562889;25;20233;-82
2024/04/11 08:25:22;;;;;;;14.88;3.60;;;;;;;;;;5563025;25;20264;-83
2024/04/11 08:27:55;;;;;;;10.95;2.63;;;;;;;;;;5563290;25;20225;-83
2024/04/11 08:30:22;;;;;;;12.05;3.13;;;;;;;;;;5563125;25;20294;-83
2024/04/11 08:32:51;;;;;;;11.45;2.63;;;;;;;;;;5560201;25;20229;-83
2024/04/11 08:35:20;;;;;;;12.57;3.13;;;;;;;;;;5556848;25;20233;-84
2024/04/11 08:37:46;;;;;;;9.73;2.70;;;;;;;;;;5561116;25;20283;-82
2024/04/11 08:40:16;;;;;;;13.68;2.95;;;;;;;;;;5557836;25;20276;-84
2024/04/11 08:42:45;;;;;;;15.85;3.08;;;;;;;;;;5557167;25;20251;-81
2024/04/11 08:45:16;;;;;;;10.63;2.92;;;;;;;;;;5559684;25;20236;-84
2024/04/11 08:47:45;;;;;;;13.00;3.45;;;;;;;;;;5169940;25;9999864;-84
2024/04/11 08:50:15;;;;;;;14.10;3.78;;;;;;;;;;5520094;25;20638;-82
2024/04/11 08:52:46;;;;;;;9.98;3.63;;;;;;;;;;5521026;25;20222;-84
2024/04/11 08:55:16;;;;;;;13.52;4.25;;;;;;;;;;5520269;26;20620;-82
2024/04/11 08:57:42;;;;;;;12.73;4.10;;;;;;;;;;5521517;25;20222;-83
2024/04/11 09:00:13;;;;;;;13.35;4.93;;;;;;;;;;5520539;25;20230;-83
2024/04/11 09:02:42;;;;;;;14.32;5.10;;;;;;;;;;5520084;25;20218;-83
2024/04/11 09:05:14;;;;;;;10.35;5.28;;;;;;;;;;5520862;26;20420;-83
2024/04/11 09:07:40;;;;;;;12.18;5.18;;;;;;;;;;5520653;26;20297;-82
2024/04/11 09:10:09;;;;;;;15.40;4.63;;;;;;;;;;5519978;26;20301;-83
2024/04/11 09:12:35;;;;;;;14.93;3.80;;;;;;;;;;5520123;26;20266;-82
2024/04/11 09:15:10;;;;;;;10.88;3.63;;;;;;;;;;5519375;25;20276;-83
2024/04/11 09:17:43;;;;;;;12.25;3.38;;;;;;;;;;5520487;26;20264;-83
2024/04/11 09:20:15;;;;;;;11.63;3.70;;;;;;;;;;5520184;26;20265;-82
2024/04/11 09:22:48;;;;;;;10.35;3.35;;;;;;;;;;5519733;26;20622;-83
2024/04/11 09:25:17;;;;;;;11.45;3.40;;;;;;;;;;5525992;25;20326;-84
2024/04/11 09:27:50;;;;;;;11.18;3.10;;;;;;;;;;5562621;25;20221;-84
2024/04/11 09:30:20;;;;;;;10.25;3.03;;;;;;;;;;5561905;25;20816;-83
2024/04/11 09:32:50;;;;;;;9.20;2.65;;;;;;;;;;5562157;25;20283;-85
2024/04/11 09:35:20;;;;;;;11.23;3.50;;;;;;;;;;5561880;25;20362;-84
2024/04/11 09:37:49;;;;;;;11.32;3.20;;;;;;;;;;5561524;25;20272;-84
2024/04/11 09:40:25;;;;;;;13.35;3.13;;;;;;;;;;5562003;25;20233;-83
2024/04/11 09:43:03;;;;;;;9.93;3.13;;;;;;;;;;5562142;25;20220;-84
2024/04/11 09:45:35;;;;;;;10.43;3.20;;;;;;;;;;5561298;25;20779;-84
2024/04/11 09:48:06;;;;;;;9.55;3.13;;;;;;;;;;5559175;25;20289;-83
2024/04/11 09:50:37;;;;;;;8.32;2.60;;;;;;;;;;5543879;25;20297;-84
2024/04/11 09:53:03;;;;;;;9.90;2.90;;;;;;;;;;5560584;25;20237;-83
2024/04/11 09:55:36;;;;;;;8.65;2.50;;;;;;;;;;5564487;25;20245;-84
2024/04/11 09:58:04;;;;;;;10.30;2.60;;;;;;;;;;5562263;25;20272;-84
2024/04/11 10:00:48;;;;;;;10.60;4.20;;;;;;;;;;5563886;25;20706;-84
2024/04/11 10:03:19;;;;;;;11.15;3.97;;;;;;;;;;5564911;25;20224;-84
2024/04/11 10:05:50;;;;;;;9.52;2.80;;;;;;;;;;5564686;25;20229;-84
2024/04/11 10:08:23;;;;;;;7.57;2.67;;;;;;;;;;5564930;25;20264;-84
2024/04/11 10:10:58;;;;;;;10.80;3.10;;;;;;;;;;5564692;25;20244;-84
2024/04/11 10:13:24;;;;;;;8.93;2.70;;;;;;;;;;5560784;25;20721;-84
2024/04/11 10:16:00;;;;;;;8.43;2.65;;;;;;;;;;5564086;25;20268;-84
2024/04/11 10:18:41;;;;;;;8.80;2.88;;;;;;;;;;5562510;25;20576;-83
2024/04/11 10:21:12;;;;;;;7.80;3.13;;;;;;;;;;5560885;25;20236;-84
2024/04/11 10:23:38;;;;;;;9.15;3.45;;;;;;;;;;5564287;25;20224;-84
2024/04/11 10:26:14;;;;;;;13.15;3.85;;;;;;;;;;5561158;25;20284;-84
2024/04/11 10:28:41;;;;;;;8.75;2.90;;;;;;;;;;5555278;25;20323;-85
2024/04/11 10:31:11;;;;;;;10.45;3.10;;;;;;;;;;5563574;25;20237;-84
2024/04/11 10:33:52;;;;;;;8.82;3.22;;;;;;;;;;5563498;25;20229;-84
2024/04/11 10:36:22;;;;;;;9.52;3.45;;;;;;;;;;5564994;25;20224;-83
2024/04/11 10:38:52;;;;;;;10.23;3.38;;;;;;;;;;5564768;25;20225;-84
2024/04/11 10:41:23;;;;;;;9.07;2.95;;;;;;;;;;5564246;25;20237;-84
2024/04/11 10:43:51;;;;;;;9.93;2.80;;;;;;;;;;5564288;25;20705;-83
2024/04/11 10:46:21;;;;;;;9.43;2.80;;;;;;;;;;5563977;25;20225;-84
2024/04/11 10:48:52;;;;;;;9.73;3.15;;;;;;;;;;5558423;25;20241;-85
2024/04/11 10:51:23;;;;;;;8.85;3.00;;;;;;;;;;5526480;26;20230;-84
2024/04/11 10:54:08;;;;;;;9.07;2.60;;;;;;;;;;5526669;26;20261;-84
2024/04/11 10:56:39;;;;;;;9.57;2.70;;;;;;;;;;5526159;26;20299;-84
2024/04/11 10:59:06;;;;;;;9.35;2.60;;;;;;;;;;5526739;26;20260;-84
2024/04/11 11:01:35;;;;;;;7.28;2.65;;;;;;;;;;5526799;26;20238;-84
2024/04/11 11:04:06;;;;;;;9.65;3.20;;;;;;;;;;5526510;25;20715;-84
2024/04/11 11:06:40;;;;;;;11.63;3.20;;;;;;;;;;5525453;26;20222;-83
2024/04/11 11:09:13;;;;;;;13.27;3.60;;;;;;;;;;5526939;26;20222;-84
2024/04/11 11:11:43;;;;;;;11.38;2.83;;;;;;;;;;5526332;26;20269;-84
2024/04/11 11:14:09;;;;;;;8.98;2.60;;;;;;;;;;5547410;25;20316;-84
2024/04/11 11:16:43;;;;;;;7.90;2.65;;;;;;;;;;5563777;25;20832;-84
2024/04/11 11:19:12;;;;;;;8.48;2.63;;;;;;;;;;5563961;25;20308;-84
2024/04/11 11:21:42;;;;;;;10.27;2.67;;;;;;;;;;5564101;25;20568;-84
2024/04/11 11:24:14;;;;;;;8.60;2.65;;;;;;;;;;5564028;25;20255;-83
2024/04/11 11:26:46;;;;;;;7.05;2.78;;;;;;;;;;5563359;25;20275;-85
2024/04/11 11:29:19;;;;;;;9.15;2.90;;;;;;;;;;5564037;25;20222;-84
2024/04/11 11:31:50;;;;;;;9.05;2.60;;;;;;;;;;5563948;25;20265;-84
2024/04/11 11:34:27;;;;;;;9.27;3.25;;;;;;;;;;5564410;25;20297;-85
2024/04/11 11:36:59;;;;;;;9.82;3.22;;;;;;;;;;5563835;25;20929;-84
2024/04/11 11:39:26;;;;;;;10.55;2.92;;;;;;;;;;5563961;25;20630;-83
2024/04/11 11:42:08;;;;;;;10.45;3.17;;;;;;;;;;5563280;25;20286;-83
2024/04/11 11:44:41;;;;;;;7.43;2.70;;;;;;;;;;5563812;25;20221;-84
2024/04/11 11:47:13;;;;;;;11.48;2.75;;;;;;;;;;5563499;25;20224;-83
2024/04/11 11:49:42;;;;;;;8.80;3.08;;;;;;;;;;5564190;25;20267;-83
2024/04/11 11:52:14;;;;;;;10.63;3.10;;;;;;;;;;5563448;25;20275;-84
2024/04/11 11:54:41;;;;;;;8.85;3.05;;;;;;;;;;5563028;25;20248;-83
2024/04/11 11:57:22;;;;;;;10.30;2.80;;;;;;;;;;5563447;25;20258;-84
2024/04/11 11:59:48;;;;;;;9.30;2.60;;;;;;;;;;5563581;25;20220;-85
2024/04/11 12:02:18;;;;;;;7.07;2.50;;;;;;;;;;5563668;25;20268;-83
2024/04/11 12:04:52;;;;;;;8.93;3.15;;;;;;;;;;5563381;25;20269;-84
2024/04/11 12:07:24;;;;;;;10.13;2.65;;;;;;;;;;5563747;25;20228;-84
2024/04/11 12:10:12;;;;;;;10.38;2.60;;;;;;;;;;5563024;25;20256;-84
2024/04/11 12:12:43;;;;;;;7.60;2.28;;;;;;;;;;5563368;25;20225;-84
2024/04/11 12:15:14;;;;;;;8.75;2.10;;;;;;;;;;5563371;25;20560;-84
2024/04/11 12:17:43;;;;;;;6.03;1.90;;;;;;;;;;5562610;25;20714;-84
2024/04/11 12:20:15;;;;;;;7.53;2.38;;;;;;;;;;5563132;25;20264;-83
2024/04/11 12:22:44;;;;;;;10.05;2.40;;;;;;;;;;5562862;25;20606;-84
2024/04/11 12:25:10;;;;;;;7.68;2.50;;;;;;;;;;5562493;25;20221;-84
2024/04/11 12:27:40;;;;;;;9.45;2.70;;;;;;;;;;5564020;25;20335;-84
2024/04/11 12:30:07;;;;;;;6.18;2.13;;;;;;;;;;5562879;25;20221;-84
2024/04/11 12:32:41;;;;;;;7.95;2.60;;;;;;;;;;5563094;25;20236;-84
2024/04/11 12:35:08;;;;;;;8.50;2.58;;;;;;;;;;5562826;25;20558;-84
2024/04/11 12:37:45;;;;;;;9.20;2.60;;;;;;;;;;5562918;25;20812;-84
2024/04/11 12:40:13;;;;;;;5.78;2.28;;;;;;;;;;5561674;25;20600;-83
2024/04/11 12:42:44;;;;;;;6.57;1.80;;;;;;;;;;5563030;25;20221;-84
2024/04/11 12:45:13;;;;;;;7.65;2.22;;;;;;;;;;5562900;25;20217;-83
2024/04/11 12:47:48;;;;;;;9.43;2.70;;;;;;;;;;5562634;25;20278;-85
2024/04/11 12:50:14;;;;;;;8.10;2.33;;;;;;;;;;5562622;25;20761;-83
2024/04/11 12:52:49;;;;;;;8.10;2.63;;;;;;;;;;5562322;25;20229;-83
2024/04/11 12:55:24;;;;;;;9.98;2.58;;;;;;;;;;5563193;25;20220;-84
2024/04/11 12:57:57;;;;;;;8.85;2.35;;;;;;;;;;5562527;25;20300;-84
2024/04/11 13:00:34;;;;;;;7.13;2.42;;;;;;;;;;5562282;25;20288;-84
2024/04/11 13:03:15;;;;;;;7.72;2.78;;;;;;;;;;5562606;25;20233;-84
2024/04/11 13:05:51;;;;;;;9.90;2.67;;;;;;;;;;5562493;25;20221;-85
2024/04/11 13:08:23;;;;;;;6.55;2.25;;;;;;;;;;5561959;25;20228;-83
2024/04/11 13:10:49;;;;;;;10.82;2.60;;;;;;;;;;5562804;25;20221;-84
2024/04/11 13:13:18;;;;;;;12.05;2.70;;;;;;;;;;5555444;25;20551;-84
2024/04/11 13:15:49;;;;;;;8.90;2.72;;;;;;;;;;5525068;25;20222;-83
2024/04/11 13:18:28;;;;;;;11.75;2.65;;;;;;;;;;5524966;26;20277;-84
2024/04/11 13:20:55;;;;;;;10.15;2.95;;;;;;;;;;5524984;25;20218;-84
2024/04/11 13:23:32;;;;;;;10.20;2.72;;;;;;;;;;5524606;26;20223;-83
2024/04/11 13:26:02;;;;;;;10.32;2.75;;;;;;;;;;5524772;26;20226;-83
2024/04/11 13:28:31;;;;;;;6.43;2.22;;;;;;;;;;5524213;25;20227;-84
2024/04/11 13:30:57;;;;;;;7.93;2.42;;;;;;;;;;5524689;26;20573;-84
2024/04/11 13:33:30;;;;;;;5.25;2.05;;;;;;;;;;5525129;26;20230;-84
2024/04/11 13:36:03;;;;;;;7.13;2.22;;;;;;;;;;5524371;26;20268;-84
2024/04/11 13:38:42;;;;;;;7.30;2.13;;;;;;;;;;5524277;26;20292;-83
2024/04/11 13:41:48;;;;;;;7.30;2.15;;;;;;;;;;5506457;25;20552;-83
2024/04/11 13:44:18;;;;;;;5.65;2.08;;;;;;;;;;5506595;26;20696;-85
2024/04/11 13:46:50;;;;;;;6.40;2.50;;;;;;;;;;5506677;25;20655;-85
2024/04/11 13:49:30;;;;;;;6.05;1.73;;;;;;;;;;5506500;25;20761;-85
2024/04/11 13:52:18;;;;;;;8.77;1.92;;;;;;;;;;5506729;25;21090;-82
2024/04/11 13:54:45;;;;;;;6.15;1.90;;;;;;;;;;5507377;25;20222;-83
2024/04/11 13:57:20;;;;;;;7.80;2.30;;;;;;;;;;5506635;25;20230;-85
2024/04/11 13:59:50;;;;;;;5.45;1.90;;;;;;;;;;5506451;25;20549;-84
2024/04/11 14:02:46;;;;;;;7.93;1.85;;;;;;;;;;5504758;26;20238;-85
2024/04/11 14:05:12;;;;;;;5.72;1.90;;;;;;;;;;5506186;25;20266;-84
2024/04/11 14:07:41;;;;;;;8.48;2.15;;;;;;;;;;5506279;26;20231;-85
2024/04/11 14:10:13;;;;;;;6.07;2.08;;;;;;;;;;5506503;25;20231;-84
2024/04/11 14:12:45;;;;;;;6.97;2.33;;;;;;;;;;5506649;25;20277;-84
2024/04/11 14:15:11;;;;;;;6.38;2.00;;;;;;;;;;5506317;25;20787;-85
2024/04/11 14:17:40;;;;;;;5.50;2.15;;;;;;;;;;5506847;25;20286;-84
2024/04/11 14:20:21;;;;;;;7.30;2.10;;;;;;;;;;5506116;25;20268;-84
2024/04/11 14:22:50;;;;;;;6.13;1.92;;;;;;;;;;5506775;25;20265;-85
2024/04/11 14:25:29;;;;;;;7.85;2.20;;;;;;;;;;5506572;25;20230;-84
2024/04/11 14:28:03;;;;;;;7.25;2.20;;;;;;;;;;5506188;25;20238;-84
2024/04/11 14:30:33;;;;;;;6.38;1.73;;;;;;;;;;5505671;26;20624;-84
2024/04/11 14:38:35;;;;;;;4.85;1.63;;;;;;;;;;5508621;26;20621;-83
2024/04/11 14:41:04;;;;;;;4.43;1.63;;;;;;;;;;5506470;25;20230;-84
2024/04/11 14:43:39;;;;;;;6.15;1.90;;;;;;;;;;5505562;25;20689;-84
2024/04/11 14:46:05;;;;;;;7.75;2.10;;;;;;;;;;5506902;25;20218;-83
2024/04/11 14:48:37;;;;;;;6.20;1.65;;;;;;;;;;5505225;25;20344;-83
2024/04/11 14:51:08;;;;;;;7.43;2.08;;;;;;;;;;5500870;25;20223;-84
2024/04/11 14:53:38;;;;;;;5.07;1.75;;;;;;;;;;5490355;26;20274;-83
2024/04/11 14:56:14;;;;;;;4.70;1.85;;;;;;;;;;5489665;26;20950;-84